sensor_id;sensor_type;location;lat;lon;timestamp;pressure;altitude;pressure_sealevel;temperature;humidity
64025;BME280;50266;57.446;26.936;2024-01-10T00:00:52;99591.02;;;0.0;100.0
64025;BME280;50266;57.446;26.936;2024-01-10T00:01:52;99587.2;;;0.0;100.0
64025;BME280;50266;57.446;26.936;2024-01-10T00:02:52;99583.11;;;-0.05;100.0
64025;BME280;50266;57.446;26.936;2024-01-10T00:03:53;99586.51;;;-0.03;100.0
64025;BME280;50266;57.446;26.936;2024-01-10T00:04:52;99580.41;;;0.03;100.0
64025;BME280;50266;57.446;26.936;2024-01-10T00:05:52;99584.7;;;0.0;100.0
64025;BME280;50266;57.446;26.936;2024-01-10T00:06:52;99580.38;;;-0.01;100.0
64025;BME280;50266;57.446;26.936;2024-01-10T00:07:52;99591.47;;;0.0;100.0
64025;BME280;50266;57.446;26.936;2024-01-10T00:08:52;99584.7;;;-0.02;100.0
64025;BME280;50266;57.446;26.936;2024-01-10T00:09:53;99584.47;;;-0.02;100.0
64025;BME280;50266;57.446;26.936;2024-01-10T00:10:52;99588.33;;;-0.02;100.0
64025;BME280;50266;57.446;26.936;2024-01-10T00:11:53;99587.8;;;-0.05;100.0
64025;BME280;50266;57.446;26.936;2024-01-10T00:12:53;99588.91;;;-0.01;100.0
64025;BME280;50266;57.446;26.936;2024-01-10T00:13:53;99589.15;;;-0.02;100.0
64025;BME280;50266;57.446;26.936;2024-01-10T00:14:53;99588.65;;;-0.04;100.0
64025;BME280;50266;57.446;26.936;2024-01-10T00:15:53;99591.0;;;-0.02;100.0
64025;BME280;50266;57.446;26.936;2024-01-10T00:16:53;99591.28;;;-0.05;100.0
64025;BME280;50266;57.446;26.936;2024-01-10T00:17:53;99590.06;;;-0.02;100.0
64025;BME280;50266;57.446;26.936;2024-01-10T00:18:53;99588.85;;;-0.03;100.0
64025;BME280;50266;57.446;26.936;2024-01-10T00:19:53;99586.84;;;-0.04;100.0
64025;BME280;50266;57.446;26.936;2024-01-10T00:20:53;99589.06;;;-0.06;100.0
64025;BME280;50266;57.446;26.936;2024-01-10T00:21:53;99596.22;;;-0.04;100.0
64025;BME280;50266;57.446;26.936;2024-01-10T00:22:53;99588.81;;;-0.04;100.0
64025;BME280;50266;57.446;26.936;2024-01-10T00:23:53;99591.42;;;-0.01;100.0
64025;BME280;50266;57.446;26.936;2024-01-10T00:24:53;99585.43;;;-0.06;100.0
64025;BME280;50266;57.446;26.936;2024-01-10T00:25:53;99586.04;;;-0.07;100.0
64025;BME280;50266;57.446;26.936;2024-01-10T00:26:53;99585.1;;;-0.06;100.0
64025;BME280;50266;57.446;26.936;2024-01-10T00:27:53;99588.78;;;-0.05;100.0
64025;BME280;50266;57.446;26.936;2024-01-10T00:28:53;99591.4;;;-0.08;100.0
64025;BME280;50266;57.446;26.936;2024-01-10T00:29:54;99579.66;;;-0.06;100.0
64025;BME280;50266;57.446;26.936;2024-01-10T00:30:54;99591.7;;;-0.04;100.0
64025;BME280;50266;57.446;26.936;2024-01-10T00:31:55;99592.43;;;-0.03;100.0
64025;BME280;50266;57.446;26.936;2024-01-10T00:32:55;99587.16;;;-0.03;100.0
64025;BME280;50266;57.446;26.936;2024-01-10T00:33:54;99587.64;;;-0.08;100.0
64025;BME280;50266;57.446;26.936;2024-01-10T00:34:55;99588.38;;;-0.07;100.0
64025;BME280;50266;57.446;26.936;2024-01-10T00:35:54;99590.02;;;-0.1;100.0
64025;BME280;50266;57.446;26.936;2024-01-10T00:36:55;99586.42;;;-0.07;100.0
64025;BME280;50266;57.446;26.936;2024-01-10T00:37:55;99581.45;;;-0.06;100.0
64025;BME280;50266;57.446;26.936;2024-01-10T00:38:55;99591.42;;;-0.07;100.0
64025;BME280;50266;57.446;26.936;2024-01-10T00:39:55;99583.28;;;-0.1;100.0
64025;BME280;50266;57.446;26.936;2024-01-10T00:40:55;99590.89;;;-0.04;100.0
64025;BME280;50266;57.446;26.936;2024-01-10T00:41:55;99586.98;;;-0.08;100.0
64025;BME280;50266;57.446;26.936;2024-01-10T00:42:55;99596.73;;;-0.08;100.0
64025;BME280;50266;57.446;26.936;2024-01-10T00:43:55;99595.05;;;-0.05;100.0
64025;BME280;50266;57.446;26.936;2024-01-10T00:44:56;99602.67;;;-0.03;100.0
64025;BME280;50266;57.446;26.936;2024-01-10T00:45:55;99605.3;;;-0.07;100.0
64025;BME280;50266;57.446;26.936;2024-01-10T00:46:55;99599.33;;;-0.07;100.0
64025;BME280;50266;57.446;26.936;2024-01-10T00:47:55;99600.11;;;-0.08;100.0
64025;BME280;50266;57.446;26.936;2024-01-10T00:48:55;99603.62;;;-0.07;100.0
64025;BME280;50266;57.446;26.936;2024-01-10T00:49:55;99602.73;;;-0.03;100.0
64025;BME280;50266;57.446;26.936;2024-01-10T00:50:55;99602.59;;;0.0;100.0
64025;BME280;50266;57.446;26.936;2024-01-10T00:51:55;99598.85;;;0.0;100.0
64025;BME280;50266;57.446;26.936;2024-01-10T00:52:55;99606.69;;;0.0;100.0
64025;BME280;50266;57.446;26.936;2024-01-10T00:53:55;99604.41;;;-0.06;100.0
64025;BME280;50266;57.446;26.936;2024-01-10T00:54:55;99605.12;;;-0.03;100.0
64025;BME280;50266;57.446;26.936;2024-01-10T00:55:55;99602.78;;;-0.06;100.0
64025;BME280;50266;57.446;26.936;2024-01-10T00:56:55;99602.36;;;-0.04;100.0
64025;BME280;50266;57.446;26.936;2024-01-10T00:57:55;99606.22;;;-0.04;100.0
64025;BME280;50266;57.446;26.936;2024-01-10T00:58:55;99604.17;;;-0.02;100.0
64025;BME280;50266;57.446;26.936;2024-01-10T00:59:55;99605.72;;;-0.08;100.0
64025;BME280;50266;57.446;26.936;2024-01-10T01:00:55;99612.32;;;-0.04;100.0
64025;BME280;50266;57.446;26.936;2024-01-10T01:01:55;99610.81;;;-0.04;100.0
64025;BME280;50266;57.446;26.936;2024-01-10T01:02:55;99609.33;;;-0.06;100.0
64025;BME280;50266;57.446;26.936;2024-01-10T01:03:55;99606.38;;;-0.04;100.0
64025;BME280;50266;57.446;26.936;2024-01-10T01:04:55;99613.42;;;-0.1;100.0
64025;BME280;50266;57.446;26.936;2024-01-10T01:05:55;99615.58;;;-0.11;100.0
64025;BME280;50266;57.446;26.936;2024-01-10T01:06:55;99613.59;;;-0.07;100.0
64025;BME280;50266;57.446;26.936;2024-01-10T01:07:55;99615.47;;;-0.06;100.0
64025;BME280;50266;57.446;26.936;2024-01-10T01:08:55;99616.8;;;-0.04;100.0
64025;BME280;50266;57.446;26.936;2024-01-10T01:09:55;99618.83;;;-0.05;100.0
64025;BME280;50266;57.446;26.936;2024-01-10T01:10:55;99615.73;;;-0.06;100.0
64025;BME280;50266;57.446;26.936;2024-01-10T01:11:55;99615.4;;;-0.08;100.0
64025;BME280;50266;57.446;26.936;2024-01-10T01:12:55;99615.75;;;-0.07;100.0
64025;BME280;50266;57.446;26.936;2024-01-10T01:13:55;99607.39;;;-0.05;100.0
64025;BME280;50266;57.446;26.936;2024-01-10T01:14:55;99613.75;;;-0.07;100.0
64025;BME280;50266;57.446;26.936;2024-01-10T01:15:55;99613.66;;;-0.16;100.0
64025;BME280;50266;57.446;26.936;2024-01-10T01:16:55;99611.85;;;-0.07;100.0
64025;BME280;50266;57.446;26.936;2024-01-10T01:17:55;99617.8;;;-0.08;100.0
64025;BME280;50266;57.446;26.936;2024-01-10T01:18:55;99612.72;;;-0.12;100.0
64025;BME280;50266;57.446;26.936;2024-01-10T01:19:55;99616.38;;;-0.08;100.0
64025;BME280;50266;57.446;26.936;2024-01-10T01:20:55;99616.81;;;-0.1;100.0
64025;BME280;50266;57.446;26.936;2024-01-10T01:21:55;99616.9;;;-0.09;100.0
64025;BME280;50266;57.446;26.936;2024-01-10T01:22:55;99619.95;;;-0.07;100.0
64025;BME280;50266;57.446;26.936;2024-01-10T01:23:55;99623.34;;;-0.05;100.0
64025;BME280;50266;57.446;26.936;2024-01-10T01:24:55;99617.55;;;-0.09;100.0
64025;BME280;50266;57.446;26.936;2024-01-10T01:25:55;99619.68;;;-0.12;100.0
64025;BME280;50266;57.446;26.936;2024-01-10T01:26:55;99621.71;;;-0.1;100.0
64025;BME280;50266;57.446;26.936;2024-01-10T01:27:55;99623.74;;;-0.09;100.0
64025;BME280;50266;57.446;26.936;2024-01-10T01:28:55;99625.18;;;-0.1;100.0
64025;BME280;50266;57.446;26.936;2024-01-10T01:29:55;99632.78;;;-0.12;100.0
64025;BME280;50266;57.446;26.936;2024-01-10T01:30:55;99633.92;;;-0.12;100.0
64025;BME280;50266;57.446;26.936;2024-01-10T01:31:55;99631.39;;;-0.1;100.0
64025;BME280;50266;57.446;26.936;2024-01-10T01:32:55;99640.59;;;-0.07;100.0
64025;BME280;50266;57.446;26.936;2024-01-10T01:33:56;99638.0;;;-0.06;100.0
64025;BME280;50266;57.446;26.936;2024-01-10T01:34:55;99636.02;;;-0.07;100.0
64025;BME280;50266;57.446;26.936;2024-01-10T01:35:55;99637.48;;;-0.05;100.0
64025;BME280;50266;57.446;26.936;2024-01-10T01:36:55;99637.95;;;-0.07;100.0
64025;BME280;50266;57.446;26.936;2024-01-10T01:37:55;99637.3;;;-0.06;100.0
64025;BME280;50266;57.446;26.936;2024-01-10T01:38:55;99636.14;;;-0.08;100.0
64025;BME280;50266;57.446;26.936;2024-01-10T01:39:55;99639.52;;;-0.06;100.0
64025;BME280;50266;57.446;26.936;2024-01-10T01:40:55;99637.22;;;-0.05;100.0
64025;BME280;50266;57.446;26.936;2024-01-10T01:41:56;99639.52;;;-0.06;100.0
64025;BME280;50266;57.446;26.936;2024-01-10T01:42:56;99639.46;;;-0.08;100.0
64025;BME280;50266;57.446;26.936;2024-01-10T01:43:56;99641.14;;;-0.1;100.0
64025;BME280;50266;57.446;26.936;2024-01-10T01:44:56;99643.83;;;-0.14;100.0
64025;BME280;50266;57.446;26.936;2024-01-10T01:45:56;99634.88;;;-0.1;100.0
64025;BME280;50266;57.446;26.936;2024-01-10T01:46:56;99635.01;;;-0.09;100.0
64025;BME280;50266;57.446;26.936;2024-01-10T01:47:56;99636.84;;;-0.11;100.0
64025;BME280;50266;57.446;26.936;2024-01-10T01:48:56;99634.8;;;-0.12;100.0
64025;BME280;50266;57.446;26.936;2024-01-10T01:49:56;99643.23;;;-0.12;100.0
64025;BME280;50266;57.446;26.936;2024-01-10T01:51:00;99641.17;;;-0.09;100.0
64025;BME280;50266;57.446;26.936;2024-01-10T01:52:03;99638.74;;;-0.05;100.0
64025;BME280;50266;57.446;26.936;2024-01-10T01:53:01;99635.64;;;-0.08;100.0
64025;BME280;50266;57.446;26.936;2024-01-10T01:54:01;99633.75;;;-0.11;100.0
64025;BME280;50266;57.446;26.936;2024-01-10T01:55:01;99634.89;;;-0.08;100.0
64025;BME280;50266;57.446;26.936;2024-01-10T01:56:02;99638.75;;;-0.08;100.0
64025;BME280;50266;57.446;26.936;2024-01-10T01:57:01;99638.31;;;-0.03;100.0
64025;BME280;50266;57.446;26.936;2024-01-10T01:58:01;99642.66;;;-0.11;100.0
64025;BME280;50266;57.446;26.936;2024-01-10T01:59:01;99646.38;;;-0.11;100.0
64025;BME280;50266;57.446;26.936;2024-01-10T02:00:01;99648.59;;;-0.1;100.0
64025;BME280;50266;57.446;26.936;2024-01-10T02:01:01;99653.48;;;-0.1;100.0
64025;BME280;50266;57.446;26.936;2024-01-10T02:02:01;99656.77;;;-0.08;100.0
64025;BME280;50266;57.446;26.936;2024-01-10T02:03:01;99654.54;;;-0.06;100.0
64025;BME280;50266;57.446;26.936;2024-01-10T02:04:01;99657.55;;;-0.07;100.0
64025;BME280;50266;57.446;26.936;2024-01-10T02:05:01;99655.61;;;-0.13;100.0
64025;BME280;50266;57.446;26.936;2024-01-10T02:06:01;99663.69;;;-0.08;100.0
64025;BME280;50266;57.446;26.936;2024-01-10T02:07:01;99667.86;;;-0.13;100.0
64025;BME280;50266;57.446;26.936;2024-01-10T02:08:01;99665.86;;;-0.14;100.0
64025;BME280;50266;57.446;26.936;2024-01-10T02:09:01;99661.91;;;-0.12;100.0
64025;BME280;50266;57.446;26.936;2024-01-10T02:10:01;99670.19;;;-0.12;100.0
64025;BME280;50266;57.446;26.936;2024-01-10T02:11:01;99667.08;;;-0.1;100.0
64025;BME280;50266;57.446;26.936;2024-01-10T02:12:01;99666.28;;;-0.08;100.0
64025;BME280;50266;57.446;26.936;2024-01-10T02:13:01;99670.52;;;-0.08;100.0
64025;BME280;50266;57.446;26.936;2024-01-10T02:14:01;99675.41;;;-0.12;100.0
64025;BME280;50266;57.446;26.936;2024-01-10T02:15:01;99681.67;;;-0.13;100.0
64025;BME280;50266;57.446;26.936;2024-01-10T02:16:01;99686.87;;;-0.08;100.0
64025;BME280;50266;57.446;26.936;2024-01-10T02:17:01;99684.48;;;-0.09;100.0
64025;BME280;50266;57.446;26.936;2024-01-10T02:18:01;99692.25;;;-0.08;100.0
64025;BME280;50266;57.446;26.936;2024-01-10T02:19:01;99695.16;;;-0.07;100.0
64025;BME280;50266;57.446;26.936;2024-01-10T02:20:07;99694.44;;;-0.11;100.0
64025;BME280;50266;57.446;26.936;2024-01-10T02:21:04;99696.47;;;-0.07;100.0
64025;BME280;50266;57.446;26.936;2024-01-10T02:22:04;99695.49;;;-0.07;100.0
64025;BME280;50266;57.446;26.936;2024-01-10T02:23:04;99694.95;;;-0.1;100.0
64025;BME280;50266;57.446;26.936;2024-01-10T02:24:04;99697.54;;;-0.06;100.0
64025;BME280;50266;57.446;26.936;2024-01-10T02:25:08;99694.62;;;-0.1;100.0
64025;BME280;50266;57.446;26.936;2024-01-10T02:26:04;99691.09;;;-0.08;100.0
64025;BME280;50266;57.446;26.936;2024-01-10T02:27:04;99696.88;;;-0.11;100.0
64025;BME280;50266;57.446;26.936;2024-01-10T02:28:05;99689.27;;;-0.14;100.0
64025;BME280;50266;57.446;26.936;2024-01-10T02:29:04;99684.76;;;-0.12;100.0
64025;BME280;50266;57.446;26.936;2024-01-10T02:30:05;99681.84;;;-0.13;100.0
64025;BME280;50266;57.446;26.936;2024-01-10T02:31:04;99686.09;;;-0.08;100.0
64025;BME280;50266;57.446;26.936;2024-01-10T02:32:05;99687.34;;;-0.1;100.0
64025;BME280;50266;57.446;26.936;2024-01-10T02:33:04;99682.1;;;-0.12;100.0
64025;BME280;50266;57.446;26.936;2024-01-10T02:34:05;99681.34;;;-0.15;100.0
64025;BME280;50266;57.446;26.936;2024-01-10T02:35:05;99684.72;;;-0.12;100.0
64025;BME280;50266;57.446;26.936;2024-01-10T02:36:05;99691.01;;;-0.14;100.0
64025;BME280;50266;57.446;26.936;2024-01-10T02:37:05;99688.27;;;-0.14;100.0
64025;BME280;50266;57.446;26.936;2024-01-10T02:38:05;99690.75;;;-0.12;100.0
64025;BME280;50266;57.446;26.936;2024-01-10T02:39:05;99689.51;;;-0.1;100.0
64025;BME280;50266;57.446;26.936;2024-01-10T02:40:05;99688.17;;;-0.11;100.0
64025;BME280;50266;57.446;26.936;2024-01-10T02:41:05;99685.61;;;-0.13;100.0
64025;BME280;50266;57.446;26.936;2024-01-10T02:42:05;99684.21;;;-0.12;100.0
64025;BME280;50266;57.446;26.936;2024-01-10T02:43:05;99683.5;;;-0.11;100.0
64025;BME280;50266;57.446;26.936;2024-01-10T02:44:05;99673.22;;;-0.14;100.0
64025;BME280;50266;57.446;26.936;2024-01-10T02:45:05;99681.56;;;-0.13;100.0
64025;BME280;50266;57.446;26.936;2024-01-10T02:46:05;99682.67;;;-0.13;100.0
64025;BME280;50266;57.446;26.936;2024-01-10T02:47:05;99677.81;;;-0.1;100.0
64025;BME280;50266;57.446;26.936;2024-01-10T02:48:05;99673.84;;;-0.15;100.0
64025;BME280;50266;57.446;26.936;2024-01-10T02:49:05;99669.95;;;-0.14;100.0
64025;BME280;50266;57.446;26.936;2024-01-10T02:50:05;99666.81;;;-0.18;100.0
64025;BME280;50266;57.446;26.936;2024-01-10T02:51:05;99668.19;;;-0.2;100.0
64025;BME280;50266;57.446;26.936;2024-01-10T02:52:05;99657.72;;;-0.22;100.0
64025;BME280;50266;57.446;26.936;2024-01-10T02:53:05;99662.78;;;-0.15;100.0
64025;BME280;50266;57.446;26.936;2024-01-10T02:54:05;99666.98;;;-0.22;100.0
64025;BME280;50266;57.446;26.936;2024-01-10T02:55:05;99671.05;;;-0.15;100.0
64025;BME280;50266;57.446;26.936;2024-01-10T02:56:05;99678.06;;;-0.15;100.0
64025;BME280;50266;57.446;26.936;2024-01-10T02:57:05;99667.69;;;-0.19;100.0
64025;BME280;50266;57.446;26.936;2024-01-10T02:58:05;99673.72;;;-0.18;100.0
64025;BME280;50266;57.446;26.936;2024-01-10T02:59:05;99665.75;;;-0.19;100.0
64025;BME280;50266;57.446;26.936;2024-01-10T03:00:05;99672.3;;;-0.15;100.0
64025;BME280;50266;57.446;26.936;2024-01-10T03:01:05;99672.55;;;-0.13;100.0
64025;BME280;50266;57.446;26.936;2024-01-10T03:02:05;99664.22;;;-0.16;100.0
64025;BME280;50266;57.446;26.936;2024-01-10T03:03:06;99667.62;;;-0.15;100.0
64025;BME280;50266;57.446;26.936;2024-01-10T03:04:05;99665.23;;;-0.15;100.0
64025;BME280;50266;57.446;26.936;2024-01-10T03:05:05;99662.36;;;-0.16;100.0
64025;BME280;50266;57.446;26.936;2024-01-10T03:06:05;99672.39;;;-0.14;100.0
64025;BME280;50266;57.446;26.936;2024-01-10T03:07:05;99675.69;;;-0.19;100.0
64025;BME280;50266;57.446;26.936;2024-01-10T03:08:05;99677.19;;;-0.17;100.0
64025;BME280;50266;57.446;26.936;2024-01-10T03:09:06;99673.85;;;-0.2;100.0
64025;BME280;50266;57.446;26.936;2024-01-10T03:10:05;99673.7;;;-0.17;100.0
64025;BME280;50266;57.446;26.936;2024-01-10T03:11:05;99676.8;;;-0.14;100.0
64025;BME280;50266;57.446;26.936;2024-01-10T03:12:05;99675.9;;;-0.15;100.0
64025;BME280;50266;57.446;26.936;2024-01-10T03:13:05;99677.52;;;-0.14;100.0
64025;BME280;50266;57.446;26.936;2024-01-10T03:14:08;99678.08;;;-0.15;100.0
64025;BME280;50266;57.446;26.936;2024-01-10T03:15:06;99676.95;;;-0.11;100.0
64025;BME280;50266;57.446;26.936;2024-01-10T03:16:06;99681.09;;;-0.17;100.0
64025;BME280;50266;57.446;26.936;2024-01-10T03:17:06;99686.78;;;-0.12;100.0
64025;BME280;50266;57.446;26.936;2024-01-10T03:18:06;99689.84;;;-0.13;100.0
64025;BME280;50266;57.446;26.936;2024-01-10T03:19:06;99693.91;;;-0.15;100.0
64025;BME280;50266;57.446;26.936;2024-01-10T03:20:07;99698.35;;;-0.17;100.0
64025;BME280;50266;57.446;26.936;2024-01-10T03:21:06;99701.4;;;-0.11;100.0
64025;BME280;50266;57.446;26.936;2024-01-10T03:22:06;99695.46;;;-0.11;100.0
64025;BME280;50266;57.446;26.936;2024-01-10T03:23:06;99701.16;;;-0.13;100.0
64025;BME280;50266;57.446;26.936;2024-01-10T03:24:06;99698.17;;;-0.16;100.0
64025;BME280;50266;57.446;26.936;2024-01-10T03:25:06;99699.54;;;-0.14;100.0
64025;BME280;50266;57.446;26.936;2024-01-10T03:26:06;99701.91;;;-0.16;100.0
64025;BME280;50266;57.446;26.936;2024-01-10T03:27:06;99705.23;;;-0.12;100.0
64025;BME280;50266;57.446;26.936;2024-01-10T03:28:06;99709.6;;;-0.16;100.0
64025;BME280;50266;57.446;26.936;2024-01-10T03:29:06;99706.77;;;-0.2;100.0
64025;BME280;50266;57.446;26.936;2024-01-10T03:30:06;99707.92;;;-0.2;100.0
64025;BME280;50266;57.446;26.936;2024-01-10T03:31:06;99706.62;;;-0.14;100.0
64025;BME280;50266;57.446;26.936;2024-01-10T03:32:06;99700.36;;;-0.23;100.0
64025;BME280;50266;57.446;26.936;2024-01-10T03:33:06;99710.45;;;-0.18;100.0
64025;BME280;50266;57.446;26.936;2024-01-10T03:34:06;99702.48;;;-0.14;100.0
64025;BME280;50266;57.446;26.936;2024-01-10T03:35:06;99703.5;;;-0.19;100.0
64025;BME280;50266;57.446;26.936;2024-01-10T03:36:06;99701.34;;;-0.21;100.0
64025;BME280;50266;57.446;26.936;2024-01-10T03:37:06;99703.95;;;-0.19;100.0
64025;BME280;50266;57.446;26.936;2024-01-10T03:38:06;99704.12;;;-0.21;100.0
64025;BME280;50266;57.446;26.936;2024-01-10T03:39:06;99704.27;;;-0.21;100.0
64025;BME280;50266;57.446;26.936;2024-01-10T03:40:06;99702.84;;;-0.2;100.0
64025;BME280;50266;57.446;26.936;2024-01-10T03:41:06;99704.87;;;-0.2;100.0
64025;BME280;50266;57.446;26.936;2024-01-10T03:42:06;99703.1;;;-0.15;100.0
64025;BME280;50266;57.446;26.936;2024-01-10T03:43:06;99705.08;;;-0.16;100.0
64025;BME280;50266;57.446;26.936;2024-01-10T03:44:06;99704.49;;;-0.2;100.0
64025;BME280;50266;57.446;26.936;2024-01-10T03:45:06;99706.69;;;-0.18;100.0
64025;BME280;50266;57.446;26.936;2024-01-10T03:46:06;99710.44;;;-0.11;100.0
64025;BME280;50266;57.446;26.936;2024-01-10T03:47:06;99716.28;;;-0.1;100.0
64025;BME280;50266;57.446;26.936;2024-01-10T03:48:06;99719.88;;;-0.15;100.0
64025;BME280;50266;57.446;26.936;2024-01-10T03:49:06;99722.04;;;-0.15;100.0
64025;BME280;50266;57.446;26.936;2024-01-10T03:50:06;99721.61;;;-0.22;100.0
64025;BME280;50266;57.446;26.936;2024-01-10T03:51:06;99723.59;;;-0.21;100.0
64025;BME280;50266;57.446;26.936;2024-01-10T03:52:06;99723.7;;;-0.23;100.0
64025;BME280;50266;57.446;26.936;2024-01-10T03:53:06;99728.44;;;-0.19;100.0
64025;BME280;50266;57.446;26.936;2024-01-10T03:54:06;99732.34;;;-0.2;100.0
64025;BME280;50266;57.446;26.936;2024-01-10T03:55:06;99725.78;;;-0.24;100.0
64025;BME280;50266;57.446;26.936;2024-01-10T03:56:06;99727.39;;;-0.19;100.0
64025;BME280;50266;57.446;26.936;2024-01-10T03:57:06;99724.08;;;-0.2;100.0
64025;BME280;50266;57.446;26.936;2024-01-10T03:58:06;99730.0;;;-0.19;100.0
64025;BME280;50266;57.446;26.936;2024-01-10T03:59:06;99731.91;;;-0.19;100.0
64025;BME280;50266;57.446;26.936;2024-01-10T04:00:06;99733.67;;;-0.21;100.0
64025;BME280;50266;57.446;26.936;2024-01-10T04:01:06;99740.35;;;-0.21;100.0
64025;BME280;50266;57.446;26.936;2024-01-10T04:02:06;99735.12;;;-0.21;100.0
64025;BME280;50266;57.446;26.936;2024-01-10T04:03:06;99735.71;;;-0.13;100.0
64025;BME280;50266;57.446;26.936;2024-01-10T04:04:06;99735.78;;;-0.19;100.0
64025;BME280;50266;57.446;26.936;2024-01-10T04:05:11;99734.05;;;-0.08;100.0
64025;BME280;50266;57.446;26.936;2024-01-10T04:06:08;99729.62;;;-0.19;100.0
64025;BME280;50266;57.446;26.936;2024-01-10T04:07:08;99723.8;;;-0.2;100.0
64025;BME280;50266;57.446;26.936;2024-01-10T04:08:08;99724.55;;;-0.15;100.0
64025;BME280;50266;57.446;26.936;2024-01-10T04:09:08;99723.09;;;-0.1;100.0
64025;BME280;50266;57.446;26.936;2024-01-10T04:10:08;99722.02;;;-0.11;100.0
64025;BME280;50266;57.446;26.936;2024-01-10T04:11:08;99720.53;;;-0.15;100.0
64025;BME280;50266;57.446;26.936;2024-01-10T04:12:08;99714.56;;;-0.19;100.0
64025;BME280;50266;57.446;26.936;2024-01-10T04:13:08;99717.28;;;-0.13;100.0
64025;BME280;50266;57.446;26.936;2024-01-10T04:14:08;99723.3;;;-0.09;100.0
64025;BME280;50266;57.446;26.936;2024-01-10T04:15:08;99714.83;;;-0.16;100.0
64025;BME280;50266;57.446;26.936;2024-01-10T04:16:08;99714.7;;;-0.19;100.0
64025;BME280;50266;57.446;26.936;2024-01-10T04:17:08;99709.61;;;-0.21;100.0
64025;BME280;50266;57.446;26.936;2024-01-10T04:18:08;99707.45;;;-0.22;100.0
64025;BME280;50266;57.446;26.936;2024-01-10T04:19:08;99705.62;;;-0.23;100.0
64025;BME280;50266;57.446;26.936;2024-01-10T04:20:08;99711.88;;;-0.22;100.0
64025;BME280;50266;57.446;26.936;2024-01-10T04:21:08;99722.66;;;-0.23;100.0
64025;BME280;50266;57.446;26.936;2024-01-10T04:22:08;99723.34;;;-0.28;100.0
64025;BME280;50266;57.446;26.936;2024-01-10T04:23:08;99713.87;;;-0.27;100.0
64025;BME280;50266;57.446;26.936;2024-01-10T04:24:08;99710.3;;;-0.29;100.0
64025;BME280;50266;57.446;26.936;2024-01-10T04:25:08;99704.73;;;-0.27;100.0
64025;BME280;50266;57.446;26.936;2024-01-10T04:26:08;99704.66;;;-0.26;100.0
64025;BME280;50266;57.446;26.936;2024-01-10T04:27:08;99704.97;;;-0.26;100.0
64025;BME280;50266;57.446;26.936;2024-01-10T04:28:08;99704.44;;;-0.23;100.0
64025;BME280;50266;57.446;26.936;2024-01-10T04:29:08;99701.7;;;-0.26;100.0
64025;BME280;50266;57.446;26.936;2024-01-10T04:30:09;99701.36;;;-0.28;100.0
64025;BME280;50266;57.446;26.936;2024-01-10T04:31:08;99701.77;;;-0.23;100.0
64025;BME280;50266;57.446;26.936;2024-01-10T04:32:08;99701.07;;;-0.3;100.0
64025;BME280;50266;57.446;26.936;2024-01-10T04:33:08;99703.55;;;-0.25;100.0
64025;BME280;50266;57.446;26.936;2024-01-10T04:34:08;99699.69;;;-0.23;100.0
64025;BME280;50266;57.446;26.936;2024-01-10T04:35:08;99695.27;;;-0.22;100.0
64025;BME280;50266;57.446;26.936;2024-01-10T04:36:08;99694.05;;;-0.21;100.0
64025;BME280;50266;57.446;26.936;2024-01-10T04:37:08;99694.21;;;-0.21;100.0
64025;BME280;50266;57.446;26.936;2024-01-10T04:38:08;99689.3;;;-0.28;100.0
64025;BME280;50266;57.446;26.936;2024-01-10T04:39:08;99687.09;;;-0.27;100.0
64025;BME280;50266;57.446;26.936;2024-01-10T04:40:09;99683.55;;;-0.3;100.0
64025;BME280;50266;57.446;26.936;2024-01-10T04:41:08;99685.16;;;-0.31;100.0
64025;BME280;50266;57.446;26.936;2024-01-10T04:42:10;99676.47;;;-0.35;100.0
64025;BME280;50266;57.446;26.936;2024-01-10T04:43:08;99672.09;;;-0.28;100.0
64025;BME280;50266;57.446;26.936;2024-01-10T04:44:08;99672.98;;;-0.38;100.0
64025;BME280;50266;57.446;26.936;2024-01-10T04:45:09;99668.53;;;-0.32;100.0
64025;BME280;50266;57.446;26.936;2024-01-10T04:46:08;99664.42;;;-0.34;100.0
64025;BME280;50266;57.446;26.936;2024-01-10T04:47:08;99666.46;;;-0.26;100.0
64025;BME280;50266;57.446;26.936;2024-01-10T04:48:08;99661.16;;;-0.28;100.0
64025;BME280;50266;57.446;26.936;2024-01-10T04:49:08;99657.57;;;-0.23;100.0
64025;BME280;50266;57.446;26.936;2024-01-10T04:50:09;99648.7;;;-0.28;100.0
64025;BME280;50266;57.446;26.936;2024-01-10T04:51:10;99643.43;;;-0.31;100.0
64025;BME280;50266;57.446;26.936;2024-01-10T04:52:10;99641.91;;;-0.32;100.0
64025;BME280;50266;57.446;26.936;2024-01-10T04:53:10;99643.14;;;-0.33;100.0
64025;BME280;50266;57.446;26.936;2024-01-10T04:54:10;99638.48;;;-0.29;100.0
64025;BME280;50266;57.446;26.936;2024-01-10T04:55:10;99640.71;;;-0.34;100.0
64025;BME280;50266;57.446;26.936;2024-01-10T04:56:10;99643.91;;;-0.28;100.0
64025;BME280;50266;57.446;26.936;2024-01-10T04:57:10;99641.62;;;-0.34;100.0
64025;BME280;50266;57.446;26.936;2024-01-10T04:58:10;99645.23;;;-0.26;100.0
64025;BME280;50266;57.446;26.936;2024-01-10T04:59:10;99641.37;;;-0.26;100.0
64025;BME280;50266;57.446;26.936;2024-01-10T05:00:10;99648.16;;;-0.19;100.0
64025;BME280;50266;57.446;26.936;2024-01-10T05:01:10;99649.65;;;-0.21;100.0
64025;BME280;50266;57.446;26.936;2024-01-10T05:02:10;99651.94;;;-0.18;100.0
64025;BME280;50266;57.446;26.936;2024-01-10T05:03:10;99654.59;;;-0.26;100.0
64025;BME280;50266;57.446;26.936;2024-01-10T05:04:10;99654.69;;;-0.28;100.0
64025;BME280;50266;57.446;26.936;2024-01-10T05:05:10;99655.38;;;-0.27;100.0
64025;BME280;50266;57.446;26.936;2024-01-10T05:06:10;99658.74;;;-0.21;100.0
64025;BME280;50266;57.446;26.936;2024-01-10T05:07:10;99657.59;;;-0.17;100.0
64025;BME280;50266;57.446;26.936;2024-01-10T05:08:10;99658.73;;;-0.21;100.0
64025;BME280;50266;57.446;26.936;2024-01-10T05:09:10;99658.66;;;-0.15;100.0
64025;BME280;50266;57.446;26.936;2024-01-10T05:10:10;99646.2;;;-0.28;100.0
64025;BME280;50266;57.446;26.936;2024-01-10T05:11:10;99645.28;;;-0.37;100.0
64025;BME280;50266;57.446;26.936;2024-01-10T05:12:10;99649.51;;;-0.36;100.0
64025;BME280;50266;57.446;26.936;2024-01-10T05:13:10;99649.54;;;-0.32;100.0
64025;BME280;50266;57.446;26.936;2024-01-10T05:14:10;99654.03;;;-0.31;100.0
64025;BME280;50266;57.446;26.936;2024-01-10T05:15:10;99658.81;;;-0.36;100.0